Seminole — 9HVD4 — position and weather

sailwx.info

Track history (hours):
 
Tides and Currents Weather Stations Pressure Air Temp Water Temp Dewpoint Dewpoint Depression Visibility Wind Speed Wind Dir Waves Ship Positions

Seminole

Last reported at 2018-Jun-22 00:05 UTC. Time now 2018-Jun-24 03:36 UTC.
Position N 45°21' E 036°40'.

Length 92 m; draft 2.8 m.

Type: Cargo ship. MMSI: 249559000.

Date/timePositionNaut miles runAvg speedWind from/ knotsBaromVisibWave heightAir tempDewpointWater temp
2018-Jun-22 00:05N 45°21' E 036°40'1 5.5
2018-Jun-21 23:55N 45°21' E 036°39'11 1.2
2018-Jun-21 15:16N 45°13' E 036°29'0 1.5
2018-Jun-21 14:59N 45°13' E 036°29'5 8.9
2018-Jun-21 14:28N 45°08' E 036°30'4 9.0
2018-Jun-21 14:00N 45°04' E 036°30'88 9.2
2018-Jun-21 04:27N 43°46' E 037°28'5 9.5
2018-Jun-21 03:57N 43°42' E 037°31'6 9.5
2018-Jun-21 03:22N 43°37' E 037°35'4 9.5
2018-Jun-21 02:59N 43°34' E 037°38'7 9.3
2018-Jun-21 02:17N 43°28' E 037°43'  
Track history (hours):
 
Tides and Currents Weather Stations Pressure Air Temp Water Temp Dewpoint Dewpoint Depression Visibility Wind Speed Wind Dir Waves Ship Positions

Seminole

Last reported at 2018-Jun-22 00:05 UTC. Time now 2018-Jun-24 03:36 UTC.
Position N 45°21' E 036°40'.

Length 92 m; draft 2.8 m.

Type: Cargo ship. MMSI: 249559000.

Date/timePositionNaut miles runAvg speedWind from/ knotsBaromVisibWave heightAir tempDewpointWater temp
2018-Jun-22 00:05N 45°21' E 036°40'1 5.5
2018-Jun-21 23:55N 45°21' E 036°39'11 1.2
2018-Jun-21 15:16N 45°13' E 036°29'0 1.5
2018-Jun-21 14:59N 45°13' E 036°29'5 8.9
2018-Jun-21 14:28N 45°08' E 036°30'4 9.0
2018-Jun-21 14:00N 45°04' E 036°30'88 9.2
2018-Jun-21 04:27N 43°46' E 037°28'5 9.5
2018-Jun-21 03:57N 43°42' E 037°31'6 9.5
2018-Jun-21 03:22N 43°37' E 037°35'4 9.5
2018-Jun-21 02:59N 43°34' E 037°38'7 9.3
2018-Jun-21 02:17N 43°28' E 037°43'  

Dump ship's entire track history